createdAt,value
2019-04-21T00:00:31.934Z,11.88
2019-04-21T00:01:35.628Z,11.90
2019-04-21T00:02:36.046Z,11.90
2019-04-21T00:03:38.416Z,11.87
2019-04-21T00:04:42.980Z,11.84
2019-04-21T00:05:55.707Z,11.84
2019-04-21T00:06:48.424Z,11.81
2019-04-21T00:07:51.227Z,11.81
2019-04-21T00:08:48.865Z,11.86
2019-04-21T00:09:52.366Z,11.84
2019-04-21T00:11:01.431Z,11.78
2019-04-21T00:11:57.264Z,11.87
2019-04-21T00:12:50.558Z,11.78
2019-04-21T00:13:51.428Z,11.81
2019-04-21T00:14:43.916Z,11.73
2019-04-21T00:15:38.684Z,11.78
2019-04-21T00:16:43.210Z,11.77
2019-04-21T00:17:32.112Z,11.73
2019-04-21T00:18:40.756Z,11.68
2019-04-21T00:19:33.981Z,11.66
2019-04-21T00:20:39.648Z,11.73
2019-04-21T00:21:39.448Z,11.66
2019-04-21T00:22:46.700Z,11.70
2019-04-21T00:23:49.422Z,11.63
2019-04-21T00:24:44.442Z,11.72
2019-04-21T00:25:46.037Z,11.68
2019-04-21T00:26:49.399Z,11.65
2019-04-21T00:27:47.812Z,11.55
2019-04-21T00:28:59.420Z,11.59
2019-04-21T00:29:49.762Z,11.54
2019-04-21T00:30:50.896Z,11.65
2019-04-21T00:31:45.827Z,11.55
2019-04-21T00:32:46.033Z,11.62
2019-04-21T00:33:36.797Z,11.60
2019-04-21T00:34:32.152Z,11.59
2019-04-21T00:35:39.551Z,11.48
2019-04-21T00:36:42.750Z,11.47
2019-04-21T00:37:54.642Z,11.52
2019-04-21T00:38:59.078Z,11.52
2019-04-21T00:40:53.820Z,11.45
2019-04-21T00:41:53.676Z,11.44
2019-04-21T00:42:48.723Z,11.48
2019-04-21T00:43:44.793Z,11.37
2019-04-21T00:44:44.319Z,11.36
2019-04-21T00:45:41.774Z,11.35
2019-04-21T00:46:50.294Z,11.45
2019-04-21T00:47:54.608Z,11.32
2019-04-21T00:48:54.082Z,11.29
2019-04-21T00:49:52.311Z,11.27
2019-04-21T00:51:11.037Z,11.29
2019-04-21T00:52:04.237Z,11.32
2019-04-21T00:53:05.513Z,11.27
2019-04-21T00:53:59.665Z,11.36
2019-04-21T00:54:58.601Z,11.33
2019-04-21T00:55:59.868Z,11.35
2019-04-21T00:56:59.158Z,11.25
2019-04-21T00:58:00.127Z,11.18
2019-04-21T00:58:53.612Z,11.22
2019-04-21T00:59:51.058Z,11.29
2019-04-21T01:00:52.686Z,11.17
2019-04-21T01:01:52.339Z,11.11
2019-04-21T01:02:56.196Z,11.12
2019-04-21T01:03:57.903Z,11.12
2019-04-21T01:05:00.217Z,11.12
2019-04-21T01:05:52.756Z,11.05
2019-04-21T01:06:55.645Z,11.05
2019-04-21T01:07:52.473Z,10.99
2019-04-21T01:08:55.733Z,11.04
2019-04-21T01:09:45.313Z,11.05
2019-04-21T01:10:43.574Z,11.08
2019-04-21T01:12:57.709Z,11.07
2019-04-21T01:14:00.979Z,10.94
2019-04-21T01:14:55.351Z,10.99
2019-04-21T01:15:52.825Z,10.84
2019-04-21T01:16:54.639Z,10.84
2019-04-21T01:17:48.397Z,10.82
2019-04-21T01:18:51.915Z,10.72
2019-04-21T01:19:43.886Z,10.59
2019-04-21T01:20:30.899Z,10.68
2019-04-21T01:21:29.901Z,10.59
2019-04-21T01:22:29.892Z,10.60
2019-04-21T01:23:29.865Z,10.69
2019-04-21T01:24:34.507Z,10.71
2019-04-21T01:25:39.884Z,10.68
2019-04-21T01:26:41.642Z,10.63
2019-04-21T01:27:50.829Z,10.61
2019-04-21T01:28:54.419Z,10.61
2019-04-21T01:29:58.309Z,10.59
2019-04-21T01:30:54.829Z,10.68
2019-04-21T01:31:48.274Z,10.78
2019-04-21T01:32:53.267Z,10.76
2019-04-21T01:33:51.541Z,10.81
2019-04-21T01:34:56.078Z,10.86
2019-04-21T01:35:48.240Z,10.82
2019-04-21T01:36:48.987Z,10.76
2019-04-21T01:38:08.134Z,10.79
2019-04-21T01:38:58.339Z,10.78
2019-04-21T01:40:14.041Z,10.82
2019-04-21T01:40:52.718Z,10.79
2019-04-21T01:41:51.107Z,10.78
2019-04-21T01:42:51.161Z,10.76
2019-04-21T01:43:53.492Z,10.74
2019-04-21T01:44:53.220Z,10.69
2019-04-21T01:45:50.532Z,10.69
2019-04-21T01:46:45.833Z,10.69
2019-04-21T01:47:46.241Z,10.56
2019-04-21T01:48:42.825Z,10.67
2019-04-21T01:49:43.185Z,10.64
2019-04-21T01:50:47.017Z,10.69
2019-04-21T01:52:05.640Z,10.64
2019-04-21T01:53:15.468Z,10.59
2019-04-21T01:53:48.596Z,10.60
2019-04-21T01:54:48.137Z,10.48
2019-04-21T01:55:52.837Z,10.48
2019-04-21T01:56:51.271Z,10.40
2019-04-21T01:57:51.226Z,10.46
2019-04-21T01:58:42.940Z,10.48
2019-04-21T01:59:43.474Z,10.46
2019-04-21T02:00:45.605Z,10.44
2019-04-21T02:01:54.120Z,10.48
2019-04-21T02:02:54.669Z,10.48
2019-04-21T02:03:58.472Z,10.41
2019-04-21T02:04:55.786Z,10.49
2019-04-21T02:06:00.014Z,10.44
2019-04-21T02:06:50.540Z,10.51
2019-04-21T02:07:49.129Z,10.40
2019-04-21T02:08:49.056Z,10.41
2019-04-21T02:09:55.431Z,10.44
2019-04-21T02:10:54.663Z,10.41
2019-04-21T02:11:56.490Z,10.48
2019-04-21T02:12:53.909Z,10.42
2019-04-21T02:13:57.286Z,10.37
2019-04-21T02:14:59.944Z,10.34
2019-04-21T02:15:59.386Z,10.35
2019-04-21T02:16:54.119Z,10.33
2019-04-21T02:17:53.615Z,10.28
2019-04-21T02:18:52.612Z,10.34
2019-04-21T02:19:45.807Z,10.26
2019-04-21T02:20:42.265Z,10.34
2019-04-21T02:21:46.284Z,10.33
2019-04-21T02:23:06.138Z,10.23
2019-04-21T02:23:57.420Z,10.28
2019-04-21T02:24:57.771Z,10.22
2019-04-21T02:25:52.703Z,10.25
2019-04-21T02:26:57.321Z,10.25
2019-04-21T02:27:54.565Z,10.16
2019-04-21T02:28:56.552Z,10.23
2019-04-21T02:29:55.462Z,10.20
2019-04-21T02:31:07.981Z,10.31
2019-04-21T02:32:01.960Z,10.26
2019-04-21T02:34:00.649Z,10.23
2019-04-21T02:35:24.618Z,10.25
2019-04-21T02:36:15.616Z,10.31
2019-04-21T02:37:19.515Z,10.19
2019-04-21T02:39:06.172Z,10.25
2019-04-21T02:40:05.061Z,10.25
2019-04-21T02:43:07.118Z,10.17
2019-04-21T02:45:00.409Z,10.12
2019-04-21T02:46:10.322Z,10.26
2019-04-21T02:47:24.110Z,10.10
2019-04-21T02:48:04.432Z,10.15
2019-04-21T02:49:07.856Z,10.15
2019-04-21T02:50:52.833Z,10.05
2019-04-21T02:52:03.385Z,10.16
2019-04-21T02:53:03.848Z,10.04
2019-04-21T02:54:31.830Z,10.02
2019-04-21T02:55:03.865Z,10.10
2019-04-21T02:56:00.243Z,10.05
2019-04-21T02:57:01.567Z,10.09
2019-04-21T02:58:16.336Z,10.15
2019-04-21T02:59:02.303Z,10.05
2019-04-21T03:01:03.285Z,10.16
2019-04-21T03:02:17.129Z,10.04
2019-04-21T03:03:16.124Z,10.09
2019-04-21T03:04:00.619Z,10.07
2019-04-21T03:05:05.264Z,10.04
2019-04-21T03:05:58.780Z,10.07
2019-04-21T03:07:09.667Z,10.04
2019-04-21T03:08:15.350Z,9.99
2019-04-21T03:08:59.040Z,10.02
2019-04-21T03:09:57.894Z,9.98
2019-04-21T03:12:05.422Z,10.02
2019-04-21T03:13:05.987Z,10.07
2019-04-21T03:14:05.538Z,10.01
2019-04-21T03:16:06.956Z,9.94
2019-04-21T03:16:55.507Z,10.02
2019-04-21T03:18:22.607Z,9.91
2019-04-21T03:19:06.381Z,9.92
2019-04-21T03:20:07.200Z,9.89
2019-04-21T03:21:13.347Z,9.92
2019-04-21T03:22:05.244Z,9.87
2019-04-21T03:23:16.615Z,9.84
2019-04-21T03:23:57.541Z,9.84
2019-04-21T03:25:22.778Z,9.80
2019-04-21T03:26:10.301Z,9.87
2019-04-21T03:27:09.686Z,9.76
2019-04-21T03:28:13.586Z,9.86
2019-04-21T03:29:09.034Z,9.79
2019-04-21T03:29:59.263Z,9.68
2019-04-21T03:31:19.629Z,9.68
2019-04-21T03:33:41.030Z,9.68
2019-04-21T03:35:26.215Z,9.68
2019-04-21T03:38:53.206Z,9.69
2019-04-21T03:39:59.345Z,9.58
2019-04-21T03:41:01.404Z,9.61
2019-04-21T03:42:08.802Z,9.59
2019-04-21T03:43:04.468Z,9.62
2019-04-21T03:43:59.325Z,9.62
2019-04-21T03:46:20.395Z,9.61
2019-04-21T03:47:17.149Z,9.56
2019-04-21T03:48:01.221Z,9.61
2019-04-21T03:49:04.652Z,9.68
2019-04-21T03:50:06.733Z,9.69
2019-04-21T03:50:56.291Z,9.74
2019-04-21T03:52:09.074Z,9.68
2019-04-21T03:54:04.923Z,9.65
2019-04-21T03:55:24.291Z,9.72
2019-04-21T03:56:00.725Z,9.64
2019-04-21T03:57:10.551Z,9.68
2019-04-21T04:00:11.030Z,9.61
2019-04-21T04:02:05.935Z,9.59
2019-04-21T04:04:09.376Z,9.58
2019-04-21T04:05:03.667Z,9.66
2019-04-21T04:08:12.884Z,9.65
2019-04-21T04:10:02.933Z,9.62
2019-04-21T04:13:02.762Z,9.65
2019-04-21T04:14:03.929Z,9.65
2019-04-21T04:17:08.785Z,9.56
2019-04-21T04:17:54.356Z,9.61
2019-04-21T04:19:00.516Z,9.55
2019-04-21T04:20:03.944Z,9.61
2019-04-21T04:21:05.803Z,9.59
2019-04-21T04:23:03.321Z,9.65
2019-04-21T04:24:09.155Z,9.62
2019-04-21T04:25:59.030Z,9.59
2019-04-21T04:28:08.245Z,9.62
2019-04-21T04:29:03.430Z,9.61
2019-04-21T04:30:01.093Z,9.55
2019-04-21T04:32:16.970Z,9.65
2019-04-21T04:32:57.226Z,9.61
2019-04-21T04:34:04.200Z,9.69
2019-04-21T04:35:05.597Z,9.80
2019-04-21T04:36:15.299Z,9.79
2019-04-21T04:37:12.619Z,9.64
2019-04-21T04:37:57.312Z,9.76
2019-04-21T04:39:18.004Z,9.74
2019-04-21T04:40:13.424Z,9.72
2019-04-21T04:41:09.696Z,9.77
2019-04-21T04:42:12.771Z,9.74
2019-04-21T04:43:06.398Z,9.76
2019-04-21T04:44:04.038Z,9.83
2019-04-21T04:47:05.865Z,9.91
2019-04-21T04:47:59.289Z,9.92
2019-04-21T04:49:01.696Z,9.83
2019-04-21T04:49:55.035Z,9.99
2019-04-21T04:51:03.889Z,10.04
2019-04-21T04:52:51.306Z,10.15
2019-04-21T04:56:20.530Z,10.12
2019-04-21T04:57:08.175Z,10.10
2019-04-21T04:58:04.880Z,10.19
2019-04-21T04:59:25.443Z,10.16
2019-04-21T05:00:19.686Z,10.22
2019-04-21T05:01:08.148Z,10.30
2019-04-21T05:02:46.440Z,10.26
2019-04-21T05:02:58.783Z,10.30
2019-04-21T05:05:09.166Z,10.33
2019-04-21T05:06:11.929Z,10.34
2019-04-21T05:06:56.341Z,10.35
2019-04-21T05:08:10.132Z,10.34
2019-04-21T05:09:10.924Z,10.37
2019-04-21T05:11:08.546Z,10.44
2019-04-21T05:11:55.390Z,10.40
2019-04-21T05:12:56.729Z,10.41
2019-04-21T05:14:06.289Z,10.54
2019-04-21T05:15:04.838Z,10.56
2019-04-21T05:16:06.210Z,10.49
2019-04-21T05:17:57.638Z,10.56
2019-04-21T05:19:10.549Z,10.59
2019-04-21T05:20:10.318Z,10.59
2019-04-21T05:21:10.552Z,10.60
2019-04-21T05:21:55.360Z,10.61
2019-04-21T05:22:56.287Z,10.61
2019-04-21T05:23:47.152Z,10.68
2019-04-21T05:25:44.537Z,10.64
2019-04-21T05:26:43.360Z,10.60
2019-04-21T05:27:42.828Z,10.75
2019-04-21T05:28:40.888Z,10.74
2019-04-21T05:29:53.916Z,10.78
2019-04-21T05:30:58.506Z,10.92
2019-04-21T05:31:55.506Z,10.81
2019-04-21T05:32:58.423Z,10.90
2019-04-21T05:33:57.390Z,11.04
2019-04-21T05:34:50.785Z,11.07
2019-04-21T05:35:49.306Z,11.11
2019-04-21T05:36:52.376Z,11.15
2019-04-21T05:37:50.395Z,11.12
2019-04-21T05:38:47.650Z,11.25
2019-04-21T05:39:46.826Z,11.36
2019-04-21T05:40:38.939Z,11.30
2019-04-21T05:41:38.615Z,11.27
2019-04-21T05:42:45.549Z,11.32
2019-04-21T05:43:48.697Z,11.37
2019-04-21T05:44:54.543Z,11.44
2019-04-21T05:45:51.854Z,11.51
2019-04-21T05:47:00.735Z,11.66
2019-04-21T05:47:56.296Z,11.65
2019-04-21T05:48:45.729Z,11.72
2019-04-21T05:49:45.629Z,11.80
2019-04-21T05:50:46.637Z,11.88
2019-04-21T05:51:46.545Z,11.91
2019-04-21T05:52:44.975Z,12.21
2019-04-21T05:53:53.111Z,12.27
2019-04-21T05:55:49.181Z,12.39
2019-04-21T05:56:49.825Z,12.58
2019-04-21T05:57:48.112Z,12.57
2019-04-21T05:58:49.752Z,12.78
2019-04-21T05:59:51.507Z,12.78
2019-04-21T06:01:06.325Z,12.94
2019-04-21T06:02:03.017Z,13.13
2019-04-21T06:02:53.385Z,13.35
2019-04-21T06:05:05.579Z,13.50
2019-04-21T06:06:58.802Z,13.97
2019-04-21T06:07:46.183Z,14.14
2019-04-21T06:08:49.999Z,14.58
2019-04-21T06:10:52.971Z,14.77
2019-04-21T06:11:51.245Z,15.04
2019-04-21T06:12:52.179Z,15.43
2019-04-21T06:13:56.809Z,15.83
2019-04-21T06:14:54.373Z,16.26
2019-04-21T06:15:57.586Z,16.56
2019-04-21T06:16:55.533Z,16.96
2019-04-21T06:17:54.883Z,17.65
2019-04-21T06:18:53.143Z,18.25
2019-04-21T06:20:19.131Z,18.80
2019-04-21T06:20:58.023Z,19.37
2019-04-21T06:21:44.859Z,19.82
2019-04-21T06:22:54.825Z,20.04
2019-04-21T06:23:47.950Z,20.37
2019-04-21T06:25:15.164Z,20.60
2019-04-21T06:26:08.506Z,21.06
2019-04-21T06:27:00.123Z,21.66
2019-04-21T06:27:51.085Z,22.10
2019-04-21T06:29:03.945Z,22.47
2019-04-21T06:29:50.254Z,22.99
2019-04-21T06:30:59.319Z,23.28
2019-04-21T06:32:17.779Z,23.44
2019-04-21T06:32:49.167Z,23.63
2019-04-21T06:33:50.708Z,23.76
2019-04-21T06:35:07.306Z,24.14
2019-04-21T06:36:11.472Z,24.54
2019-04-21T06:37:49.179Z,24.61
2019-04-21T06:39:01.146Z,24.76
2019-04-21T06:40:06.450Z,24.53
2019-04-21T06:40:48.687Z,24.84
2019-04-21T06:42:07.731Z,25.21
2019-04-21T06:43:08.295Z,25.51
2019-04-21T06:43:56.696Z,26.02
2019-04-21T06:45:03.101Z,26.45
2019-04-21T06:46:18.211Z,26.51
2019-04-21T06:46:47.032Z,26.63
2019-04-21T06:47:51.185Z,26.38
2019-04-21T06:48:55.692Z,26.51
2019-04-21T06:49:50.155Z,26.77
2019-04-21T06:50:52.999Z,27.25
2019-04-21T06:51:48.358Z,27.70
2019-04-21T06:53:59.265Z,28.05
2019-04-21T06:55:52.021Z,28.14
2019-04-21T06:57:03.303Z,28.32
2019-04-21T06:57:54.334Z,28.07
2019-04-21T06:58:52.689Z,27.68
2019-04-21T06:59:43.647Z,27.96
2019-04-21T07:00:47.730Z,28.26
2019-04-21T07:01:52.736Z,28.91
2019-04-21T07:02:51.950Z,29.12
2019-04-21T07:04:02.376Z,28.81
2019-04-21T07:04:50.173Z,28.48
2019-04-21T07:05:57.281Z,27.82
2019-04-21T07:07:54.679Z,28.15
2019-04-21T07:09:02.567Z,28.17
2019-04-21T07:09:53.082Z,28.11
2019-04-21T07:10:52.040Z,27.55
2019-04-21T07:11:52.841Z,27.67
2019-04-21T07:12:48.277Z,28.19
2019-04-21T07:13:44.030Z,29.20
2019-04-21T07:14:50.040Z,30.25
2019-04-21T07:15:53.021Z,31.02
2019-04-21T07:16:52.564Z,31.71
2019-04-21T07:17:54.722Z,31.97
2019-04-21T07:18:51.374Z,32.15
2019-04-21T07:20:49.480Z,33.53
2019-04-21T07:22:03.313Z,33.57
2019-04-21T07:22:48.086Z,32.74
2019-04-21T07:23:52.296Z,33.17
2019-04-21T07:24:54.053Z,33.31
2019-04-21T07:25:53.431Z,33.31
2019-04-21T07:26:51.542Z,33.74
2019-04-21T07:28:56.277Z,34.80
2019-04-21T07:29:55.093Z,35.36
2019-04-21T07:30:57.672Z,35.76
2019-04-21T07:31:54.392Z,36.31
2019-04-21T07:32:55.291Z,36.80
2019-04-21T07:34:51.797Z,36.24
2019-04-21T07:35:54.003Z,36.02
2019-04-21T07:37:07.747Z,35.67
2019-04-21T07:37:48.712Z,35.93
2019-04-21T07:38:45.884Z,36.25
2019-04-21T07:39:43.949Z,36.25
2019-04-21T07:40:41.703Z,36.12
2019-04-21T07:41:46.926Z,36.39
2019-04-21T07:42:38.007Z,36.72
2019-04-21T07:43:44.103Z,36.61
2019-04-21T07:44:42.287Z,36.51
2019-04-21T07:45:40.792Z,35.92
2019-04-21T07:46:42.705Z,35.89
2019-04-21T07:47:46.077Z,36.20
2019-04-21T07:48:58.761Z,36.36
2019-04-21T07:49:53.757Z,35.98
2019-04-21T07:50:48.794Z,36.61
2019-04-21T07:51:53.450Z,35.98
2019-04-21T07:52:55.389Z,35.14
2019-04-21T07:53:50.988Z,35.00
2019-04-21T07:54:56.819Z,35.37
2019-04-21T07:56:34.580Z,35.92
2019-04-21T07:57:44.184Z,37.01
2019-04-21T07:58:56.359Z,37.87
2019-04-21T08:00:01.221Z,38.52
2019-04-21T08:00:53.019Z,39.48
2019-04-21T08:01:50.875Z,38.55
2019-04-21T08:02:49.561Z,36.51
2019-04-21T08:03:45.809Z,36.31
2019-04-21T08:05:07.513Z,37.33
2019-04-21T08:05:45.768Z,38.58
2019-04-21T08:06:48.872Z,39.26
2019-04-21T08:07:54.209Z,40.02
2019-04-21T08:08:46.650Z,40.46
2019-04-21T08:09:47.263Z,40.65
2019-04-21T08:11:45.754Z,39.97
2019-04-21T08:12:43.200Z,40.33
2019-04-21T08:13:48.556Z,40.34
2019-04-21T08:14:55.616Z,40.43
2019-04-21T08:15:49.427Z,40.85
2019-04-21T08:16:52.450Z,40.72
2019-04-21T08:17:49.147Z,41.04
2019-04-21T08:18:45.468Z,40.08
2019-04-21T08:19:43.106Z,39.96
2019-04-21T08:20:45.933Z,40.00
2019-04-21T08:21:49.653Z,40.34
2019-04-21T08:23:43.487Z,41.33
2019-04-21T08:24:49.169Z,41.50
2019-04-21T08:25:53.057Z,41.83
2019-04-21T08:26:51.801Z,42.20
2019-04-21T08:27:57.006Z,41.77
2019-04-21T08:28:49.377Z,41.34
2019-04-21T08:29:47.588Z,41.24
2019-04-21T08:30:42.511Z,40.38
2019-04-21T08:34:57.352Z,38.91
2019-04-21T08:36:04.804Z,38.82
2019-04-21T08:36:44.965Z,38.20
2019-04-21T08:37:43.352Z,37.32
2019-04-21T08:38:48.410Z,37.92
2019-04-21T08:39:56.786Z,37.42
2019-04-21T08:40:40.835Z,37.59
2019-04-21T08:41:46.426Z,38.55
2019-04-21T08:42:47.751Z,39.49
2019-04-21T08:43:46.861Z,40.44
2019-04-21T08:44:47.887Z,41.21
2019-04-21T08:45:49.346Z,41.57
2019-04-21T08:46:49.106Z,41.43
2019-04-21T08:47:45.787Z,41.83
2019-04-21T08:48:45.954Z,41.92
2019-04-21T08:49:49.981Z,41.77
2019-04-21T08:50:44.677Z,41.55
2019-04-21T08:51:49.696Z,41.52
2019-04-21T08:52:49.199Z,42.01
2019-04-21T08:53:49.045Z,42.25
2019-04-21T08:54:48.349Z,41.98
2019-04-21T08:55:53.460Z,41.68
2019-04-21T08:56:49.686Z,41.65
2019-04-21T08:57:53.771Z,41.59
2019-04-21T08:58:52.271Z,42.19
2019-04-21T08:59:47.052Z,43.01
2019-04-21T09:00:47.349Z,43.62
2019-04-21T09:01:53.349Z,44.27
2019-04-21T09:02:48.655Z,44.81
2019-04-21T09:03:44.842Z,45.09
2019-04-21T09:04:46.569Z,45.40
2019-04-21T09:05:42.433Z,45.34
2019-04-21T09:07:04.603Z,45.08
2019-04-21T09:07:47.588Z,43.95
2019-04-21T09:08:45.765Z,42.95
2019-04-21T09:09:47.662Z,42.44
2019-04-21T09:11:49.864Z,43.04
2019-04-21T09:12:41.793Z,43.03
2019-04-21T09:13:41.140Z,43.08
2019-04-21T09:14:41.842Z,42.31
2019-04-21T09:15:42.947Z,42.21
2019-04-21T09:16:41.070Z,42.51
2019-04-21T09:17:36.743Z,42.53
2019-04-21T09:18:42.100Z,42.88
2019-04-21T09:19:50.996Z,43.28
2019-04-21T09:20:46.113Z,43.61
2019-04-21T09:22:42.744Z,43.04
2019-04-21T09:24:45.717Z,44.02
2019-04-21T09:25:46.767Z,42.73
2019-04-21T09:26:43.179Z,42.21
2019-04-21T09:27:41.944Z,42.45
2019-04-21T09:28:39.493Z,41.94
2019-04-21T09:29:35.827Z,40.08
2019-04-21T09:30:26.348Z,39.77
2019-04-21T09:31:31.964Z,40.62
2019-04-21T09:32:29.400Z,41.53
2019-04-21T09:33:34.499Z,42.09
2019-04-21T09:34:33.982Z,42.85
2019-04-21T09:35:26.957Z,42.55
2019-04-21T09:36:33.700Z,41.88
2019-04-21T09:37:37.952Z,40.82
2019-04-21T09:38:33.898Z,40.87
2019-04-21T09:39:29.184Z,41.25
2019-04-21T09:40:30.133Z,41.98
2019-04-21T09:41:27.688Z,41.28
2019-04-21T09:42:33.260Z,41.28
2019-04-21T09:43:34.078Z,42.13
2019-04-21T09:44:31.509Z,42.67
2019-04-21T09:45:26.435Z,43.04
2019-04-21T09:46:25.480Z,43.03
2019-04-21T09:47:33.987Z,43.23
2019-04-21T09:48:26.632Z,43.83
2019-04-21T09:49:27.904Z,42.32
2019-04-21T09:50:26.568Z,41.66
2019-04-21T09:51:25.608Z,41.90
2019-04-21T09:52:30.989Z,41.95
2019-04-21T09:53:33.013Z,42.10
2019-04-21T09:54:29.863Z,42.58
2019-04-21T09:55:32.068Z,42.13
2019-04-21T09:56:34.420Z,42.32
2019-04-21T09:57:36.643Z,42.85
2019-04-21T09:58:32.799Z,43.61
2019-04-21T09:59:29.952Z,44.18
2019-04-21T10:00:29.305Z,44.17
2019-04-21T10:01:29.885Z,43.84
2019-04-21T10:02:35.635Z,43.38
2019-04-21T10:03:26.343Z,43.58
2019-04-21T10:04:24.286Z,43.50
2019-04-21T10:05:25.165Z,43.57
2019-04-21T10:06:24.349Z,43.69
2019-04-21T10:07:31.826Z,42.09
2019-04-21T10:08:25.390Z,40.95
2019-04-21T10:09:24.391Z,40.77
2019-04-21T10:10:25.265Z,40.87
2019-04-21T10:11:24.555Z,40.92
2019-04-21T10:12:25.543Z,40.95
2019-04-21T10:13:25.263Z,40.97
2019-04-21T10:14:24.426Z,41.40
2019-04-21T10:15:26.291Z,41.33
2019-04-21T10:16:24.207Z,41.60
2019-04-21T10:17:24.170Z,41.70
2019-04-21T10:18:25.121Z,41.83
2019-04-21T10:19:25.370Z,42.31
2019-04-21T10:20:24.526Z,42.31
2019-04-21T10:21:26.057Z,42.58
2019-04-21T10:22:24.163Z,42.95
2019-04-21T10:23:25.374Z,43.24
2019-04-21T10:24:24.534Z,43.18
2019-04-21T10:25:25.048Z,43.15
2019-04-21T10:26:24.425Z,43.18
2019-04-21T10:27:25.270Z,42.88
2019-04-21T10:28:25.120Z,41.57
2019-04-21T10:29:26.459Z,41.18
2019-04-21T10:30:25.035Z,40.21
2019-04-21T10:31:24.937Z,38.95
2019-04-21T10:32:25.403Z,39.48
2019-04-21T10:33:24.204Z,40.18
2019-04-21T10:34:25.210Z,40.70
2019-04-21T10:35:25.018Z,40.84
2019-04-21T10:36:24.874Z,39.44
2019-04-21T10:37:36.589Z,40.02
2019-04-21T10:38:33.244Z,40.38
2019-04-21T10:39:25.019Z,40.81
2019-04-21T10:40:25.379Z,41.65
2019-04-21T10:41:23.967Z,42.13
2019-04-21T10:42:23.935Z,42.67
2019-04-21T10:43:25.423Z,42.07
2019-04-21T10:44:25.251Z,41.94
2019-04-21T10:45:25.124Z,41.55
2019-04-21T10:46:24.739Z,41.19
2019-04-21T10:47:24.793Z,41.03
2019-04-21T10:48:25.177Z,41.14
2019-04-21T10:49:24.485Z,41.91
2019-04-21T10:50:24.567Z,42.47
2019-04-21T10:51:25.293Z,43.27
2019-04-21T10:52:25.037Z,43.01
2019-04-21T10:53:24.925Z,42.51
2019-04-21T10:54:24.124Z,42.32
2019-04-21T10:55:40.499Z,42.24
2019-04-21T10:56:32.620Z,41.21
2019-04-21T10:57:24.847Z,41.28
2019-04-21T10:58:24.590Z,41.80
2019-04-21T10:59:24.986Z,42.10
2019-04-21T11:00:24.080Z,42.39
2019-04-21T11:01:25.042Z,42.57
2019-04-21T11:02:25.081Z,42.13
2019-04-21T11:03:24.837Z,41.14
2019-04-21T11:04:29.652Z,41.15
2019-04-21T11:05:24.941Z,41.43
2019-04-21T11:06:24.451Z,41.21
2019-04-21T11:07:29.670Z,41.43
2019-04-21T11:08:30.668Z,40.96
2019-04-21T11:09:24.695Z,40.18
2019-04-21T11:10:23.682Z,40.06
2019-04-21T11:11:23.925Z,40.33
2019-04-21T11:12:24.017Z,39.93
2019-04-21T11:13:23.664Z,40.65
2019-04-21T11:14:23.657Z,41.37
2019-04-21T11:15:23.705Z,41.53
2019-04-21T11:16:23.630Z,41.77
2019-04-21T11:17:23.970Z,41.77
2019-04-21T11:18:24.064Z,41.03
2019-04-21T11:19:24.250Z,41.14
2019-04-21T11:20:24.701Z,41.52
2019-04-21T11:21:24.813Z,41.65
2019-04-21T11:22:25.080Z,41.40
2019-04-21T11:23:24.955Z,41.14
2019-04-21T11:24:24.932Z,40.90
2019-04-21T11:25:24.324Z,40.69
2019-04-21T11:26:24.334Z,40.99
2019-04-21T11:27:24.673Z,41.43
2019-04-21T11:28:24.765Z,42.20
2019-04-21T11:29:23.532Z,42.69
2019-04-21T11:30:23.531Z,42.43
2019-04-21T11:31:24.935Z,41.90
2019-04-21T11:32:23.501Z,41.74
2019-04-21T11:33:24.890Z,41.49
2019-04-21T11:34:23.471Z,40.56
2019-04-21T11:35:23.505Z,40.31
2019-04-21T11:36:23.480Z,40.53
2019-04-21T11:37:24.121Z,40.66
2019-04-21T11:38:26.955Z,40.99
2019-04-21T11:39:35.283Z,40.80
2019-04-21T11:40:25.445Z,40.91
2019-04-21T11:41:23.868Z,40.58
2019-04-21T11:42:23.794Z,39.96
2019-04-21T11:43:24.037Z,39.75
2019-04-21T11:44:24.780Z,39.65
2019-04-21T11:45:24.354Z,40.11
2019-04-21T11:46:24.496Z,40.30
2019-04-21T11:47:24.529Z,40.33
2019-04-21T11:48:24.215Z,40.04
2019-04-21T11:49:24.274Z,39.74
2019-04-21T11:50:23.373Z,39.92
2019-04-21T11:51:23.323Z,40.23
2019-04-21T11:52:23.328Z,40.84
2019-04-21T11:53:23.305Z,41.33
2019-04-21T11:54:24.614Z,41.55
2019-04-21T11:55:29.524Z,41.68
2019-04-21T11:56:25.094Z,42.24
2019-04-21T11:57:27.995Z,42.26
2019-04-21T11:58:26.006Z,42.41
2019-04-21T11:59:23.876Z,41.75
2019-04-21T12:00:23.977Z,39.83
2019-04-21T12:01:23.515Z,38.61
2019-04-21T12:02:23.548Z,37.32
2019-04-21T12:03:23.980Z,37.28
2019-04-21T12:04:23.507Z,36.61
2019-04-21T12:05:23.610Z,35.83
2019-04-21T12:06:31.753Z,36.02
2019-04-21T12:07:25.137Z,35.71
2019-04-21T12:08:32.423Z,35.89
2019-04-21T12:09:25.098Z,36.16
2019-04-21T12:10:23.777Z,36.76
2019-04-21T12:11:23.284Z,37.55
2019-04-21T12:12:23.343Z,37.70
2019-04-21T12:13:24.440Z,37.53
2019-04-21T12:14:23.825Z,37.55
2019-04-21T12:15:23.347Z,37.47
2019-04-21T12:16:23.384Z,37.55
2019-04-21T12:17:23.723Z,37.94
2019-04-21T12:18:26.344Z,38.40
2019-04-21T12:19:25.028Z,38.79
2019-04-21T12:20:24.332Z,38.80
2019-04-21T12:21:23.422Z,36.99
2019-04-21T12:22:28.131Z,35.52
2019-04-21T12:23:24.683Z,35.68
2019-04-21T12:24:23.030Z,36.35
2019-04-21T12:25:23.059Z,36.99
2019-04-21T12:26:24.184Z,37.40
2019-04-21T12:27:23.043Z,37.53
2019-04-21T12:28:23.872Z,37.26
2019-04-21T12:29:23.053Z,36.95
2019-04-21T12:30:24.073Z,36.51
2019-04-21T12:31:23.453Z,36.25
2019-04-21T12:32:24.093Z,36.35
2019-04-21T12:33:24.282Z,36.37
2019-04-21T12:34:23.758Z,36.49
2019-04-21T12:35:23.882Z,36.80
2019-04-21T12:36:24.083Z,37.08
2019-04-21T12:37:22.929Z,37.26
2019-04-21T12:38:32.116Z,36.68
2019-04-21T12:39:25.072Z,35.78
2019-04-21T12:40:24.231Z,35.10
2019-04-21T12:41:22.934Z,34.16
2019-04-21T12:42:22.996Z,33.73
2019-04-21T12:43:23.143Z,33.86
2019-04-21T12:44:22.873Z,34.35
2019-04-21T12:45:24.025Z,34.83
2019-04-21T12:46:22.889Z,34.70
2019-04-21T12:47:23.859Z,34.40
2019-04-21T12:48:24.057Z,33.95
2019-04-21T12:49:22.814Z,32.86
2019-04-21T12:50:23.575Z,32.01
2019-04-21T12:51:23.950Z,31.14
2019-04-21T12:52:23.898Z,30.72
2019-04-21T12:53:23.558Z,30.39
2019-04-21T12:54:23.810Z,30.69
2019-04-21T12:55:26.151Z,30.87
2019-04-21T12:56:23.828Z,31.42
2019-04-21T12:57:23.445Z,31.46
2019-04-21T12:58:23.646Z,31.61
2019-04-21T12:59:22.744Z,31.71
2019-04-21T13:00:22.866Z,31.80
2019-04-21T13:01:23.157Z,32.22
2019-04-21T13:02:22.767Z,32.75
2019-04-21T13:03:24.778Z,32.75
2019-04-21T13:04:23.849Z,32.36
2019-04-21T13:05:22.684Z,32.16
2019-04-21T13:06:23.484Z,32.67
2019-04-21T13:07:23.579Z,33.05
2019-04-21T13:08:22.658Z,32.90
2019-04-21T13:09:24.131Z,32.90
2019-04-21T13:10:24.213Z,32.58
2019-04-21T13:11:23.345Z,32.26
2019-04-21T13:12:23.349Z,32.63
2019-04-21T13:13:23.914Z,32.92
2019-04-21T13:14:23.946Z,33.43
2019-04-21T13:15:22.607Z,33.58
2019-04-21T13:16:23.361Z,33.57
2019-04-21T13:17:23.619Z,33.68
2019-04-21T13:18:22.699Z,33.71
2019-04-21T13:19:23.182Z,33.30
2019-04-21T13:20:23.266Z,33.12
2019-04-21T13:21:22.574Z,33.22
2019-04-21T13:22:23.473Z,33.07
2019-04-21T13:23:23.159Z,32.18
2019-04-21T13:24:22.527Z,31.59
2019-04-21T13:25:23.584Z,31.34
2019-04-21T13:26:34.443Z,30.92
2019-04-21T13:27:24.815Z,30.39
2019-04-21T13:28:22.916Z,30.19
2019-04-21T13:29:22.475Z,30.09
2019-04-21T13:30:22.482Z,30.21
2019-04-21T13:31:22.527Z,30.40
2019-04-21T13:32:22.488Z,30.68
2019-04-21T13:33:22.951Z,30.51
2019-04-21T13:34:22.427Z,30.57
2019-04-21T13:35:23.298Z,30.47
2019-04-21T13:36:23.440Z,30.10
2019-04-21T13:37:23.594Z,30.15
2019-04-21T13:38:30.114Z,30.37
2019-04-21T13:39:50.274Z,30.19
2019-04-21T13:40:43.353Z,29.91
2019-04-21T13:41:36.421Z,29.86
2019-04-21T13:42:31.431Z,29.56
2019-04-21T13:43:23.405Z,29.59
2019-04-21T13:44:23.489Z,29.63
2019-04-21T13:45:23.860Z,29.82
2019-04-21T13:46:22.805Z,30.10
2019-04-21T13:47:22.767Z,30.31
2019-04-21T13:48:22.492Z,30.43
2019-04-21T13:49:23.446Z,30.61
2019-04-21T13:50:23.548Z,30.83
2019-04-21T13:51:22.881Z,30.85
2019-04-21T13:52:22.817Z,30.84
2019-04-21T13:53:22.752Z,30.90
2019-04-21T13:54:22.277Z,30.40
2019-04-21T13:55:23.436Z,30.21
2019-04-21T13:56:22.724Z,30.13
2019-04-21T13:57:22.724Z,29.93